sensor_id;sensor_type;location;lat;lon;timestamp;P1;durP1;ratioP1;P2;durP2;ratioP2
1693;SDS011;844;47.058;15.472;2022-12-11T00:01:08;1.80;;;1.10;;
1693;SDS011;844;47.058;15.472;2022-12-11T00:03:40;1.17;;;1.00;;
1693;SDS011;844;47.058;15.472;2022-12-11T00:06:12;0.77;;;0.60;;
1693;SDS011;844;47.058;15.472;2022-12-11T00:08:44;0.90;;;0.70;;
1693;SDS011;844;47.058;15.472;2022-12-11T00:11:14;1.10;;;0.53;;
1693;SDS011;844;47.058;15.472;2022-12-11T00:13:45;1.10;;;0.70;;
1693;SDS011;844;47.058;15.472;2022-12-11T00:16:17;0.83;;;0.80;;
1693;SDS011;844;47.058;15.472;2022-12-11T00:18:53;1.00;;;0.63;;
1693;SDS011;844;47.058;15.472;2022-12-11T00:21:24;1.00;;;0.90;;
1693;SDS011;844;47.058;15.472;2022-12-11T00:23:54;1.13;;;0.90;;
1693;SDS011;844;47.058;15.472;2022-12-11T00:26:27;1.20;;;0.60;;
1693;SDS011;844;47.058;15.472;2022-12-11T00:28:57;1.10;;;0.93;;
1693;SDS011;844;47.058;15.472;2022-12-11T00:31:28;0.90;;;0.63;;
1693;SDS011;844;47.058;15.472;2022-12-11T00:33:59;1.10;;;1.00;;
1693;SDS011;844;47.058;15.472;2022-12-11T00:36:30;2.10;;;1.03;;
1693;SDS011;844;47.058;15.472;2022-12-11T00:39:01;1.17;;;0.90;;
1693;SDS011;844;47.058;15.472;2022-12-11T00:41:32;0.90;;;0.77;;
1693;SDS011;844;47.058;15.472;2022-12-11T00:44:03;1.00;;;0.70;;
1693;SDS011;844;47.058;15.472;2022-12-11T00:46:35;1.30;;;0.70;;
1693;SDS011;844;47.058;15.472;2022-12-11T00:49:06;1.10;;;0.70;;
1693;SDS011;844;47.058;15.472;2022-12-11T00:51:36;1.30;;;1.20;;
1693;SDS011;844;47.058;15.472;2022-12-11T00:54:06;1.50;;;1.10;;
1693;SDS011;844;47.058;15.472;2022-12-11T00:56:36;0.93;;;0.83;;
1693;SDS011;844;47.058;15.472;2022-12-11T00:59:06;0.87;;;0.80;;
1693;SDS011;844;47.058;15.472;2022-12-11T01:01:38;1.53;;;1.00;;
1693;SDS011;844;47.058;15.472;2022-12-11T01:04:10;1.10;;;0.90;;
1693;SDS011;844;47.058;15.472;2022-12-11T01:06:41;1.13;;;1.00;;
1693;SDS011;844;47.058;15.472;2022-12-11T01:09:10;0.70;;;0.60;;
1693;SDS011;844;47.058;15.472;2022-12-11T01:12:03;0.83;;;0.80;;
1693;SDS011;844;47.058;15.472;2022-12-11T01:14:37;1.07;;;0.77;;
1693;SDS011;844;47.058;15.472;2022-12-11T01:17:08;1.60;;;1.00;;
1693;SDS011;844;47.058;15.472;2022-12-11T01:19:38;0.87;;;0.83;;
1693;SDS011;844;47.058;15.472;2022-12-11T01:22:08;1.30;;;1.00;;
1693;SDS011;844;47.058;15.472;2022-12-11T01:24:39;1.70;;;1.40;;
1693;SDS011;844;47.058;15.472;2022-12-11T01:27:10;1.63;;;1.20;;
1693;SDS011;844;47.058;15.472;2022-12-11T01:29:40;1.40;;;1.13;;
1693;SDS011;844;47.058;15.472;2022-12-11T01:32:11;4.50;;;0.80;;
1693;SDS011;844;47.058;15.472;2022-12-11T01:34:41;1.07;;;0.97;;
1693;SDS011;844;47.058;15.472;2022-12-11T01:37:11;1.97;;;1.00;;
1693;SDS011;844;47.058;15.472;2022-12-11T01:39:41;3.13;;;1.20;;
1693;SDS011;844;47.058;15.472;2022-12-11T01:42:13;1.63;;;1.00;;
1693;SDS011;844;47.058;15.472;2022-12-11T01:47:56;2.13;;;0.90;;
1693;SDS011;844;47.058;15.472;2022-12-11T01:50:30;1.07;;;0.93;;
1693;SDS011;844;47.058;15.472;2022-12-11T01:53:03;3.47;;;3.27;;
1693;SDS011;844;47.058;15.472;2022-12-11T01:55:35;8.30;;;7.50;;
1693;SDS011;844;47.058;15.472;2022-12-11T01:58:07;11.83;;;10.43;;
1693;SDS011;844;47.058;15.472;2022-12-11T02:00:38;17.20;;;15.60;;
1693;SDS011;844;47.058;15.472;2022-12-11T02:03:11;12.20;;;11.13;;
1693;SDS011;844;47.058;15.472;2022-12-11T02:05:41;11.03;;;10.07;;
1693;SDS011;844;47.058;15.472;2022-12-11T02:08:11;5.50;;;5.00;;
1693;SDS011;844;47.058;15.472;2022-12-11T02:10:46;4.63;;;3.37;;
1693;SDS011;844;47.058;15.472;2022-12-11T02:13:22;5.03;;;4.53;;
1693;SDS011;844;47.058;15.472;2022-12-11T02:15:59;3.10;;;2.80;;
1693;SDS011;844;47.058;15.472;2022-12-11T02:18:33;2.67;;;2.00;;
1693;SDS011;844;47.058;15.472;2022-12-11T02:21:09;2.00;;;1.27;;
1693;SDS011;844;47.058;15.472;2022-12-11T02:24:04;1.83;;;1.43;;
1693;SDS011;844;47.058;15.472;2022-12-11T02:26:55;1.97;;;1.07;;
1693;SDS011;844;47.058;15.472;2022-12-11T02:29:38;0.93;;;0.80;;
1693;SDS011;844;47.058;15.472;2022-12-11T02:32:14;1.67;;;0.87;;
1693;SDS011;844;47.058;15.472;2022-12-11T02:34:48;1.23;;;0.90;;
1693;SDS011;844;47.058;15.472;2022-12-11T02:37:23;0.90;;;0.80;;
1693;SDS011;844;47.058;15.472;2022-12-11T02:39:55;1.17;;;0.70;;
1693;SDS011;844;47.058;15.472;2022-12-11T02:42:26;0.90;;;0.50;;
1693;SDS011;844;47.058;15.472;2022-12-11T02:45:00;1.03;;;0.80;;
1693;SDS011;844;47.058;15.472;2022-12-11T02:47:32;0.80;;;0.73;;
1693;SDS011;844;47.058;15.472;2022-12-11T02:50:03;1.23;;;0.70;;
1693;SDS011;844;47.058;15.472;2022-12-11T02:52:37;1.10;;;0.87;;
1693;SDS011;844;47.058;15.472;2022-12-11T02:55:08;1.30;;;0.80;;
1693;SDS011;844;47.058;15.472;2022-12-11T02:57:41;1.20;;;0.60;;
1693;SDS011;844;47.058;15.472;2022-12-11T03:00:15;0.97;;;0.87;;
1693;SDS011;844;47.058;15.472;2022-12-11T03:02:46;0.80;;;0.70;;
1693;SDS011;844;47.058;15.472;2022-12-11T03:05:15;1.03;;;0.60;;
1693;SDS011;844;47.058;15.472;2022-12-11T03:07:45;1.00;;;0.80;;
1693;SDS011;844;47.058;15.472;2022-12-11T03:10:16;1.80;;;1.00;;
1693;SDS011;844;47.058;15.472;2022-12-11T03:12:46;0.60;;;0.50;;
1693;SDS011;844;47.058;15.472;2022-12-11T03:15:22;0.83;;;0.70;;
1693;SDS011;844;47.058;15.472;2022-12-11T03:17:58;1.20;;;0.70;;
1693;SDS011;844;47.058;15.472;2022-12-11T03:20:35;1.43;;;1.30;;
1693;SDS011;844;47.058;15.472;2022-12-11T03:23:09;0.60;;;0.40;;
1693;SDS011;844;47.058;15.472;2022-12-11T03:25:51;1.53;;;0.80;;
1693;SDS011;844;47.058;15.472;2022-12-11T03:28:25;2.50;;;0.67;;
1693;SDS011;844;47.058;15.472;2022-12-11T03:31:00;1.67;;;0.73;;
1693;SDS011;844;47.058;15.472;2022-12-11T03:33:34;1.53;;;0.50;;
1693;SDS011;844;47.058;15.472;2022-12-11T03:36:06;0.90;;;0.70;;
1693;SDS011;844;47.058;15.472;2022-12-11T03:38:39;1.10;;;0.87;;
1693;SDS011;844;47.058;15.472;2022-12-11T03:41:11;1.00;;;0.77;;
1693;SDS011;844;47.058;15.472;2022-12-11T03:43:42;1.40;;;0.77;;
1693;SDS011;844;47.058;15.472;2022-12-11T03:46:14;1.80;;;1.00;;
1693;SDS011;844;47.058;15.472;2022-12-11T03:48:45;0.60;;;0.50;;
1693;SDS011;844;47.058;15.472;2022-12-11T03:51:16;2.40;;;0.60;;
1693;SDS011;844;47.058;15.472;2022-12-11T03:53:47;0.87;;;0.87;;
1693;SDS011;844;47.058;15.472;2022-12-11T03:56:17;0.80;;;0.70;;
1693;SDS011;844;47.058;15.472;2022-12-11T03:58:49;3.57;;;0.87;;
1693;SDS011;844;47.058;15.472;2022-12-11T04:01:20;1.00;;;0.80;;
1693;SDS011;844;47.058;15.472;2022-12-11T04:03:51;1.10;;;0.70;;
1693;SDS011;844;47.058;15.472;2022-12-11T04:06:21;0.80;;;0.63;;
1693;SDS011;844;47.058;15.472;2022-12-11T04:08:50;1.00;;;0.63;;
1693;SDS011;844;47.058;15.472;2022-12-11T04:11:19;1.30;;;0.57;;
1693;SDS011;844;47.058;15.472;2022-12-11T04:14:02;1.90;;;0.77;;
1693;SDS011;844;47.058;15.472;2022-12-11T04:16:52;2.50;;;1.07;;
1693;SDS011;844;47.058;15.472;2022-12-11T04:19:24;1.77;;;0.80;;
1693;SDS011;844;47.058;15.472;2022-12-11T04:22:08;1.00;;;0.90;;
1693;SDS011;844;47.058;15.472;2022-12-11T04:24:58;1.13;;;0.83;;
1693;SDS011;844;47.058;15.472;2022-12-11T04:27:28;1.40;;;0.87;;
1693;SDS011;844;47.058;15.472;2022-12-11T04:30:15;0.80;;;0.73;;
1693;SDS011;844;47.058;15.472;2022-12-11T04:32:49;1.10;;;1.00;;
1693;SDS011;844;47.058;15.472;2022-12-11T04:35:19;1.47;;;1.20;;
1693;SDS011;844;47.058;15.472;2022-12-11T04:37:51;0.83;;;0.73;;
1693;SDS011;844;47.058;15.472;2022-12-11T04:40:23;1.83;;;0.93;;
1693;SDS011;844;47.058;15.472;2022-12-11T04:42:53;1.00;;;0.73;;
1693;SDS011;844;47.058;15.472;2022-12-11T04:45:23;1.03;;;0.93;;
1693;SDS011;844;47.058;15.472;2022-12-11T04:47:54;1.37;;;0.80;;
1693;SDS011;844;47.058;15.472;2022-12-11T04:50:24;0.90;;;0.60;;
1693;SDS011;844;47.058;15.472;2022-12-11T04:52:54;1.00;;;0.90;;
1693;SDS011;844;47.058;15.472;2022-12-11T04:55:24;0.90;;;0.80;;
1693;SDS011;844;47.058;15.472;2022-12-11T04:57:54;1.30;;;1.00;;
1693;SDS011;844;47.058;15.472;2022-12-11T05:00:24;1.17;;;1.00;;
1693;SDS011;844;47.058;15.472;2022-12-11T05:02:56;1.20;;;1.07;;
1693;SDS011;844;47.058;15.472;2022-12-11T05:05:26;1.30;;;1.00;;
1693;SDS011;844;47.058;15.472;2022-12-11T05:07:56;1.67;;;1.33;;
1693;SDS011;844;47.058;15.472;2022-12-11T05:10:25;1.30;;;1.10;;
1693;SDS011;844;47.058;15.472;2022-12-11T05:12:55;1.67;;;1.30;;
1693;SDS011;844;47.058;15.472;2022-12-11T05:15:25;2.60;;;1.60;;
1693;SDS011;844;47.058;15.472;2022-12-11T05:17:56;1.87;;;1.27;;
1693;SDS011;844;47.058;15.472;2022-12-11T05:20:26;1.00;;;0.83;;
1693;SDS011;844;47.058;15.472;2022-12-11T05:22:59;1.43;;;1.33;;
1693;SDS011;844;47.058;15.472;2022-12-11T05:25:31;1.50;;;1.40;;
1693;SDS011;844;47.058;15.472;2022-12-11T05:28:01;1.60;;;1.50;;
1693;SDS011;844;47.058;15.472;2022-12-11T05:30:31;2.20;;;1.53;;
1693;SDS011;844;47.058;15.472;2022-12-11T05:33:02;1.43;;;1.13;;
1693;SDS011;844;47.058;15.472;2022-12-11T05:35:32;1.30;;;1.17;;
1693;SDS011;844;47.058;15.472;2022-12-11T05:38:02;1.93;;;1.33;;
1693;SDS011;844;47.058;15.472;2022-12-11T05:40:32;1.00;;;0.60;;
1693;SDS011;844;47.058;15.472;2022-12-11T05:43:01;1.37;;;1.27;;
1693;SDS011;844;47.058;15.472;2022-12-11T05:45:31;1.30;;;1.10;;
1693;SDS011;844;47.058;15.472;2022-12-11T05:48:03;1.50;;;0.90;;
1693;SDS011;844;47.058;15.472;2022-12-11T05:50:33;1.53;;;1.10;;
1693;SDS011;844;47.058;15.472;2022-12-11T05:53:03;1.37;;;1.10;;
1693;SDS011;844;47.058;15.472;2022-12-11T05:55:34;2.07;;;1.23;;
1693;SDS011;844;47.058;15.472;2022-12-11T05:58:04;1.40;;;0.90;;
1693;SDS011;844;47.058;15.472;2022-12-11T06:00:34;1.27;;;1.17;;
1693;SDS011;844;47.058;15.472;2022-12-11T06:03:05;1.60;;;1.23;;
1693;SDS011;844;47.058;15.472;2022-12-11T06:05:36;0.90;;;0.80;;
1693;SDS011;844;47.058;15.472;2022-12-11T06:08:06;2.03;;;1.20;;
1693;SDS011;844;47.058;15.472;2022-12-11T06:10:36;1.17;;;1.03;;
1693;SDS011;844;47.058;15.472;2022-12-11T06:13:06;1.33;;;1.20;;
1693;SDS011;844;47.058;15.472;2022-12-11T06:15:35;1.67;;;1.27;;
1693;SDS011;844;47.058;15.472;2022-12-11T06:18:07;1.20;;;1.10;;
1693;SDS011;844;47.058;15.472;2022-12-11T06:20:38;1.30;;;0.90;;
1693;SDS011;844;47.058;15.472;2022-12-11T06:23:08;1.10;;;1.00;;
1693;SDS011;844;47.058;15.472;2022-12-11T06:25:38;1.13;;;0.90;;
1693;SDS011;844;47.058;15.472;2022-12-11T06:28:08;1.53;;;1.23;;
1693;SDS011;844;47.058;15.472;2022-12-11T06:30:39;1.20;;;0.80;;
1693;SDS011;844;47.058;15.472;2022-12-11T06:33:10;1.27;;;0.93;;
1693;SDS011;844;47.058;15.472;2022-12-11T06:35:40;2.50;;;1.40;;
1693;SDS011;844;47.058;15.472;2022-12-11T06:38:09;1.00;;;0.70;;
1693;SDS011;844;47.058;15.472;2022-12-11T06:40:39;1.30;;;1.03;;
1693;SDS011;844;47.058;15.472;2022-12-11T06:43:09;1.37;;;1.07;;
1693;SDS011;844;47.058;15.472;2022-12-11T06:45:39;1.70;;;1.33;;
1693;SDS011;844;47.058;15.472;2022-12-11T06:48:10;1.33;;;0.83;;
1693;SDS011;844;47.058;15.472;2022-12-11T06:50:40;1.80;;;1.47;;
1693;SDS011;844;47.058;15.472;2022-12-11T06:53:10;1.57;;;1.10;;
1693;SDS011;844;47.058;15.472;2022-12-11T06:55:41;1.80;;;1.37;;
1693;SDS011;844;47.058;15.472;2022-12-11T06:58:11;1.47;;;1.37;;
1693;SDS011;844;47.058;15.472;2022-12-11T07:00:41;8.20;;;1.40;;
1693;SDS011;844;47.058;15.472;2022-12-11T07:03:13;2.43;;;1.40;;
1693;SDS011;844;47.058;15.472;2022-12-11T07:05:42;2.90;;;1.50;;
1693;SDS011;844;47.058;15.472;2022-12-11T07:08:13;1.70;;;1.47;;
1693;SDS011;844;47.058;15.472;2022-12-11T07:10:45;2.23;;;1.97;;
1693;SDS011;844;47.058;15.472;2022-12-11T07:13:15;1.97;;;1.50;;
1693;SDS011;844;47.058;15.472;2022-12-11T07:15:45;1.70;;;1.37;;
1693;SDS011;844;47.058;15.472;2022-12-11T07:18:17;2.07;;;1.30;;
1693;SDS011;844;47.058;15.472;2022-12-11T07:20:47;3.13;;;1.60;;
1693;SDS011;844;47.058;15.472;2022-12-11T07:23:17;4.03;;;1.60;;
1693;SDS011;844;47.058;15.472;2022-12-11T07:25:47;3.77;;;1.53;;
1693;SDS011;844;47.058;15.472;2022-12-11T07:28:16;2.27;;;1.97;;
1693;SDS011;844;47.058;15.472;2022-12-11T07:30:47;1.60;;;1.40;;
1693;SDS011;844;47.058;15.472;2022-12-11T07:33:18;2.03;;;1.60;;
1693;SDS011;844;47.058;15.472;2022-12-11T07:35:48;2.67;;;1.50;;
1693;SDS011;844;47.058;15.472;2022-12-11T07:38:17;2.10;;;1.53;;
1693;SDS011;844;47.058;15.472;2022-12-11T07:40:47;2.20;;;2.00;;
1693;SDS011;844;47.058;15.472;2022-12-11T07:43:17;1.90;;;1.60;;
1693;SDS011;844;47.058;15.472;2022-12-11T07:45:47;2.20;;;1.60;;
1693;SDS011;844;47.058;15.472;2022-12-11T07:48:17;2.13;;;1.60;;
1693;SDS011;844;47.058;15.472;2022-12-11T07:50:48;3.00;;;2.00;;
1693;SDS011;844;47.058;15.472;2022-12-11T07:53:18;2.20;;;1.70;;
1693;SDS011;844;47.058;15.472;2022-12-11T07:55:48;3.10;;;2.80;;
1693;SDS011;844;47.058;15.472;2022-12-11T07:58:19;3.13;;;2.53;;
1693;SDS011;844;47.058;15.472;2022-12-11T08:00:50;2.17;;;1.90;;
1693;SDS011;844;47.058;15.472;2022-12-11T08:03:21;2.70;;;2.10;;
1693;SDS011;844;47.058;15.472;2022-12-11T08:05:52;2.60;;;2.40;;
1693;SDS011;844;47.058;15.472;2022-12-11T08:08:22;3.03;;;2.77;;
1693;SDS011;844;47.058;15.472;2022-12-11T08:10:52;1.73;;;1.63;;
1693;SDS011;844;47.058;15.472;2022-12-11T08:13:22;2.13;;;1.90;;
1693;SDS011;844;47.058;15.472;2022-12-11T08:15:52;3.57;;;2.60;;
1693;SDS011;844;47.058;15.472;2022-12-11T08:18:23;4.53;;;3.17;;
1693;SDS011;844;47.058;15.472;2022-12-11T08:20:54;2.30;;;2.10;;
1693;SDS011;844;47.058;15.472;2022-12-11T08:23:24;2.43;;;2.10;;
1693;SDS011;844;47.058;15.472;2022-12-11T08:25:53;3.03;;;2.20;;
1693;SDS011;844;47.058;15.472;2022-12-11T08:28:23;3.17;;;2.83;;
1693;SDS011;844;47.058;15.472;2022-12-11T08:30:53;2.93;;;2.63;;
1693;SDS011;844;47.058;15.472;2022-12-11T08:33:24;3.23;;;2.63;;
1693;SDS011;844;47.058;15.472;2022-12-11T08:35:54;2.70;;;2.13;;
1693;SDS011;844;47.058;15.472;2022-12-11T08:38:24;2.73;;;2.40;;
1693;SDS011;844;47.058;15.472;2022-12-11T08:40:54;4.87;;;3.20;;
1693;SDS011;844;47.058;15.472;2022-12-11T08:43:25;2.43;;;2.13;;
1693;SDS011;844;47.058;15.472;2022-12-11T08:45:55;2.57;;;2.37;;
1693;SDS011;844;47.058;15.472;2022-12-11T08:48:27;2.60;;;2.40;;
1693;SDS011;844;47.058;15.472;2022-12-11T08:50:58;6.27;;;2.37;;
1693;SDS011;844;47.058;15.472;2022-12-11T08:53:29;2.63;;;2.00;;
1693;SDS011;844;47.058;15.472;2022-12-11T08:56:00;2.40;;;2.20;;
1693;SDS011;844;47.058;15.472;2022-12-11T08:58:31;4.40;;;2.60;;
1693;SDS011;844;47.058;15.472;2022-12-11T09:01:04;2.80;;;2.30;;
1693;SDS011;844;47.058;15.472;2022-12-11T09:03:38;3.03;;;2.73;;
1693;SDS011;844;47.058;15.472;2022-12-11T09:06:09;4.00;;;2.60;;
1693;SDS011;844;47.058;15.472;2022-12-11T09:08:41;2.90;;;2.43;;
1693;SDS011;844;47.058;15.472;2022-12-11T09:11:19;1.90;;;1.57;;
1693;SDS011;844;47.058;15.472;2022-12-11T09:13:50;5.60;;;2.50;;
1693;SDS011;844;47.058;15.472;2022-12-11T09:16:22;2.30;;;1.80;;
1693;SDS011;844;47.058;15.472;2022-12-11T09:18:55;2.30;;;2.10;;
1693;SDS011;844;47.058;15.472;2022-12-11T09:21:27;2.70;;;2.50;;
1693;SDS011;844;47.058;15.472;2022-12-11T09:23:58;2.17;;;1.77;;
1693;SDS011;844;47.058;15.472;2022-12-11T09:26:29;2.20;;;1.90;;
1693;SDS011;844;47.058;15.472;2022-12-11T09:29:01;2.07;;;1.90;;
1693;SDS011;844;47.058;15.472;2022-12-11T09:31:33;2.67;;;2.37;;
1693;SDS011;844;47.058;15.472;2022-12-11T09:34:05;2.97;;;1.80;;
1693;SDS011;844;47.058;15.472;2022-12-11T09:36:38;2.33;;;2.13;;
1693;SDS011;844;47.058;15.472;2022-12-11T09:39:11;5.03;;;2.57;;
1693;SDS011;844;47.058;15.472;2022-12-11T09:41:45;3.43;;;2.43;;
1693;SDS011;844;47.058;15.472;2022-12-11T09:47:14;2.00;;;1.80;;
1693;SDS011;844;47.058;15.472;2022-12-11T09:49:52;1.87;;;1.60;;
1693;SDS011;844;47.058;15.472;2022-12-11T09:52:27;2.93;;;2.10;;
1693;SDS011;844;47.058;15.472;2022-12-11T09:55:03;2.60;;;2.17;;
1693;SDS011;844;47.058;15.472;2022-12-11T09:57:41;1.87;;;1.73;;
1693;SDS011;844;47.058;15.472;2022-12-11T10:00:19;2.10;;;1.70;;
1693;SDS011;844;47.058;15.472;2022-12-11T10:03:01;3.63;;;2.00;;
1693;SDS011;844;47.058;15.472;2022-12-11T10:05:50;2.50;;;2.30;;
1693;SDS011;844;47.058;15.472;2022-12-11T10:08:32;2.10;;;1.90;;
1693;SDS011;844;47.058;15.472;2022-12-11T10:11:12;2.30;;;1.90;;
1693;SDS011;844;47.058;15.472;2022-12-11T10:13:57;2.93;;;2.67;;
1693;SDS011;844;47.058;15.472;2022-12-11T10:16:34;2.60;;;2.23;;
1693;SDS011;844;47.058;15.472;2022-12-11T10:19:08;2.80;;;2.50;;
1693;SDS011;844;47.058;15.472;2022-12-11T10:21:44;3.47;;;2.63;;
1693;SDS011;844;47.058;15.472;2022-12-11T10:24:16;3.23;;;2.20;;
1693;SDS011;844;47.058;15.472;2022-12-11T10:27:13;3.83;;;1.97;;
1693;SDS011;844;47.058;15.472;2022-12-11T10:29:46;2.20;;;1.87;;
1693;SDS011;844;47.058;15.472;2022-12-11T10:32:20;2.43;;;2.13;;
1693;SDS011;844;47.058;15.472;2022-12-11T10:34:54;2.20;;;2.00;;
1693;SDS011;844;47.058;15.472;2022-12-11T10:37:28;2.47;;;1.90;;
1693;SDS011;844;47.058;15.472;2022-12-11T10:39:58;2.50;;;2.30;;
1693;SDS011;844;47.058;15.472;2022-12-11T10:42:27;2.30;;;2.10;;
1693;SDS011;844;47.058;15.472;2022-12-11T10:44:58;2.00;;;1.80;;
1693;SDS011;844;47.058;15.472;2022-12-11T10:47:31;2.67;;;2.47;;
1693;SDS011;844;47.058;15.472;2022-12-11T10:50:01;4.77;;;2.53;;
1693;SDS011;844;47.058;15.472;2022-12-11T10:52:36;2.03;;;1.83;;
1693;SDS011;844;47.058;15.472;2022-12-11T10:55:16;6.20;;;2.43;;
1693;SDS011;844;47.058;15.472;2022-12-11T10:57:56;3.40;;;2.43;;
1693;SDS011;844;47.058;15.472;2022-12-11T11:00:29;3.10;;;2.07;;
1693;SDS011;844;47.058;15.472;2022-12-11T11:03:03;3.17;;;2.67;;
1693;SDS011;844;47.058;15.472;2022-12-11T11:05:46;2.50;;;2.30;;
1693;SDS011;844;47.058;15.472;2022-12-11T11:08:19;2.73;;;2.00;;
1693;SDS011;844;47.058;15.472;2022-12-11T11:10:51;4.10;;;3.23;;
1693;SDS011;844;47.058;15.472;2022-12-11T11:13:23;3.70;;;2.57;;
1693;SDS011;844;47.058;15.472;2022-12-11T11:16:00;2.93;;;2.40;;
1693;SDS011;844;47.058;15.472;2022-12-11T11:18:32;3.20;;;2.53;;
1693;SDS011;844;47.058;15.472;2022-12-11T11:21:02;2.50;;;2.30;;
1693;SDS011;844;47.058;15.472;2022-12-11T11:23:34;3.10;;;2.70;;
1693;SDS011;844;47.058;15.472;2022-12-11T11:26:11;2.47;;;2.00;;
1693;SDS011;844;47.058;15.472;2022-12-11T11:28:46;3.83;;;2.43;;
1693;SDS011;844;47.058;15.472;2022-12-11T11:31:17;3.47;;;2.50;;
1693;SDS011;844;47.058;15.472;2022-12-11T11:33:51;3.10;;;2.47;;
1693;SDS011;844;47.058;15.472;2022-12-11T11:36:24;2.50;;;2.30;;
1693;SDS011;844;47.058;15.472;2022-12-11T11:39:05;3.43;;;2.80;;
1693;SDS011;844;47.058;15.472;2022-12-11T11:41:46;2.70;;;2.00;;
1693;SDS011;844;47.058;15.472;2022-12-11T11:44:22;4.13;;;3.63;;
1693;SDS011;844;47.058;15.472;2022-12-11T11:46:54;3.40;;;2.77;;
1693;SDS011;844;47.058;15.472;2022-12-11T11:49:30;2.10;;;1.83;;
1693;SDS011;844;47.058;15.472;2022-12-11T11:52:13;2.57;;;2.37;;
1693;SDS011;844;47.058;15.472;2022-12-11T11:54:48;2.90;;;2.30;;
1693;SDS011;844;47.058;15.472;2022-12-11T11:57:22;6.73;;;2.67;;
1693;SDS011;844;47.058;15.472;2022-12-11T11:59:57;2.67;;;2.20;;
1693;SDS011;844;47.058;15.472;2022-12-11T12:02:36;3.33;;;2.60;;
1693;SDS011;844;47.058;15.472;2022-12-11T12:05:08;3.60;;;3.30;;
1693;SDS011;844;47.058;15.472;2022-12-11T12:07:41;3.13;;;2.60;;
1693;SDS011;844;47.058;15.472;2022-12-11T12:10:18;2.70;;;2.30;;
1693;SDS011;844;47.058;15.472;2022-12-11T12:12:55;2.17;;;2.00;;
1693;SDS011;844;47.058;15.472;2022-12-11T12:15:29;2.60;;;2.30;;
1693;SDS011;844;47.058;15.472;2022-12-11T12:18:07;2.03;;;1.83;;
1693;SDS011;844;47.058;15.472;2022-12-11T12:20:42;3.93;;;2.17;;
1693;SDS011;844;47.058;15.472;2022-12-11T12:23:27;2.47;;;2.13;;
1693;SDS011;844;47.058;15.472;2022-12-11T12:26:07;3.27;;;2.57;;
1693;SDS011;844;47.058;15.472;2022-12-11T12:28:43;3.13;;;2.37;;
1693;SDS011;844;47.058;15.472;2022-12-11T12:31:23;5.70;;;3.13;;
1693;SDS011;844;47.058;15.472;2022-12-11T12:34:07;3.30;;;2.60;;
1693;SDS011;844;47.058;15.472;2022-12-11T12:36:43;2.90;;;2.53;;
1693;SDS011;844;47.058;15.472;2022-12-11T12:39:19;2.10;;;1.90;;
1693;SDS011;844;47.058;15.472;2022-12-11T12:41:56;2.83;;;2.07;;
1693;SDS011;844;47.058;15.472;2022-12-11T12:44:34;3.00;;;2.37;;
1693;SDS011;844;47.058;15.472;2022-12-11T12:47:11;3.77;;;2.67;;
1693;SDS011;844;47.058;15.472;2022-12-11T12:49:43;3.80;;;3.17;;
1693;SDS011;844;47.058;15.472;2022-12-11T12:52:15;2.80;;;2.50;;
1693;SDS011;844;47.058;15.472;2022-12-11T12:54:47;2.20;;;1.93;;
1693;SDS011;844;47.058;15.472;2022-12-11T12:57:40;2.53;;;2.33;;
1693;SDS011;844;47.058;15.472;2022-12-11T13:00:24;2.20;;;2.00;;
1693;SDS011;844;47.058;15.472;2022-12-11T13:03:00;2.70;;;2.20;;
1693;SDS011;844;47.058;15.472;2022-12-11T13:05:39;2.73;;;2.03;;
1693;SDS011;844;47.058;15.472;2022-12-11T13:08:11;2.50;;;2.30;;
1693;SDS011;844;47.058;15.472;2022-12-11T13:10:41;3.37;;;2.47;;
1693;SDS011;844;47.058;15.472;2022-12-11T13:13:29;3.03;;;2.73;;
1693;SDS011;844;47.058;15.472;2022-12-11T13:16:05;4.30;;;2.37;;
1693;SDS011;844;47.058;15.472;2022-12-11T13:18:37;3.60;;;2.30;;
1693;SDS011;844;47.058;15.472;2022-12-11T13:21:22;2.23;;;2.03;;
1693;SDS011;844;47.058;15.472;2022-12-11T13:24:09;1.73;;;1.63;;
1693;SDS011;844;47.058;15.472;2022-12-11T13:26:43;2.87;;;2.20;;
1693;SDS011;844;47.058;15.472;2022-12-11T13:29:32;2.90;;;2.00;;
1693;SDS011;844;47.058;15.472;2022-12-11T13:32:10;2.40;;;2.20;;
1693;SDS011;844;47.058;15.472;2022-12-11T13:34:50;2.43;;;1.80;;
1693;SDS011;844;47.058;15.472;2022-12-11T13:37:23;2.63;;;2.20;;
1693;SDS011;844;47.058;15.472;2022-12-11T13:39:56;3.03;;;2.20;;
1693;SDS011;844;47.058;15.472;2022-12-11T13:42:28;2.00;;;1.73;;
1693;SDS011;844;47.058;15.472;2022-12-11T13:45:02;2.50;;;2.30;;
1693;SDS011;844;47.058;15.472;2022-12-11T13:47:33;2.53;;;2.33;;
1693;SDS011;844;47.058;15.472;2022-12-11T13:50:11;3.13;;;2.40;;
1693;SDS011;844;47.058;15.472;2022-12-11T13:52:51;2.53;;;2.00;;
1693;SDS011;844;47.058;15.472;2022-12-11T13:55:22;2.60;;;2.17;;
1693;SDS011;844;47.058;15.472;2022-12-11T13:57:53;2.90;;;2.57;;
1693;SDS011;844;47.058;15.472;2022-12-11T14:00:26;2.47;;;2.13;;
1693;SDS011;844;47.058;15.472;2022-12-11T14:02:59;2.67;;;2.10;;
1693;SDS011;844;47.058;15.472;2022-12-11T14:05:33;2.60;;;2.27;;
1693;SDS011;844;47.058;15.472;2022-12-11T14:08:05;2.47;;;2.20;;
1693;SDS011;844;47.058;15.472;2022-12-11T14:10:36;2.00;;;1.50;;
1693;SDS011;844;47.058;15.472;2022-12-11T14:13:11;4.03;;;2.53;;
1693;SDS011;844;47.058;15.472;2022-12-11T14:15:46;2.33;;;2.13;;
1693;SDS011;844;47.058;15.472;2022-12-11T14:18:17;3.10;;;2.70;;
1693;SDS011;844;47.058;15.472;2022-12-11T14:20:53;3.10;;;2.43;;
1693;SDS011;844;47.058;15.472;2022-12-11T14:23:24;3.10;;;2.17;;
1693;SDS011;844;47.058;15.472;2022-12-11T14:25:56;2.60;;;2.13;;
1693;SDS011;844;47.058;15.472;2022-12-11T14:28:29;3.03;;;2.27;;
1693;SDS011;844;47.058;15.472;2022-12-11T14:31:07;2.40;;;1.97;;
1693;SDS011;844;47.058;15.472;2022-12-11T14:33:38;1.90;;;1.73;;
1693;SDS011;844;47.058;15.472;2022-12-11T14:36:12;2.70;;;1.87;;
1693;SDS011;844;47.058;15.472;2022-12-11T14:38:43;2.30;;;1.60;;
1693;SDS011;844;47.058;15.472;2022-12-11T14:41:18;2.67;;;2.23;;
1693;SDS011;844;47.058;15.472;2022-12-11T14:43:52;2.03;;;1.93;;
1693;SDS011;844;47.058;15.472;2022-12-11T14:46:28;3.13;;;2.23;;
1693;SDS011;844;47.058;15.472;2022-12-11T14:49:06;2.40;;;2.20;;
1693;SDS011;844;47.058;15.472;2022-12-11T14:51:43;2.30;;;2.10;;
1693;SDS011;844;47.058;15.472;2022-12-11T14:54:15;2.40;;;1.67;;
1693;SDS011;844;47.058;15.472;2022-12-11T14:56:49;1.80;;;1.70;;
1693;SDS011;844;47.058;15.472;2022-12-11T14:59:20;3.37;;;2.33;;
1693;SDS011;844;47.058;15.472;2022-12-11T15:02:16;2.37;;;2.10;;
1693;SDS011;844;47.058;15.472;2022-12-11T15:04:58;2.10;;;1.87;;
1693;SDS011;844;47.058;15.472;2022-12-11T15:07:40;3.40;;;2.60;;
1693;SDS011;844;47.058;15.472;2022-12-11T15:10:21;2.30;;;1.87;;
1693;SDS011;844;47.058;15.472;2022-12-11T15:12:52;2.53;;;1.50;;
1693;SDS011;844;47.058;15.472;2022-12-11T15:15:22;2.40;;;2.00;;
1693;SDS011;844;47.058;15.472;2022-12-11T15:17:54;2.10;;;1.80;;
1693;SDS011;844;47.058;15.472;2022-12-11T15:20:25;1.83;;;1.53;;
1693;SDS011;844;47.058;15.472;2022-12-11T15:22:57;2.40;;;1.90;;
1693;SDS011;844;47.058;15.472;2022-12-11T15:25:29;3.13;;;2.90;;
1693;SDS011;844;47.058;15.472;2022-12-11T15:27:59;2.20;;;1.97;;
1693;SDS011;844;47.058;15.472;2022-12-11T15:30:31;1.97;;;1.67;;
1693;SDS011;844;47.058;15.472;2022-12-11T15:33:19;3.17;;;1.90;;
1693;SDS011;844;47.058;15.472;2022-12-11T15:38:46;2.77;;;1.77;;
1693;SDS011;844;47.058;15.472;2022-12-11T15:41:21;2.40;;;1.93;;
1693;SDS011;844;47.058;15.472;2022-12-11T15:43:53;2.90;;;2.30;;
1693;SDS011;844;47.058;15.472;2022-12-11T15:46:25;3.10;;;2.10;;
1693;SDS011;844;47.058;15.472;2022-12-11T15:48:58;3.13;;;2.70;;
1693;SDS011;844;47.058;15.472;2022-12-11T15:51:28;2.87;;;2.40;;
1693;SDS011;844;47.058;15.472;2022-12-11T15:53:59;3.33;;;2.60;;
1693;SDS011;844;47.058;15.472;2022-12-11T15:56:29;2.87;;;2.57;;
1693;SDS011;844;47.058;15.472;2022-12-11T15:59:00;3.50;;;3.07;;
1693;SDS011;844;47.058;15.472;2022-12-11T16:01:33;3.17;;;2.87;;